Gulf Bridge — A8JM5 — position and weather

sailwx.info

Track history (hours):
 
Tides and Currents Weather Stations Pressure Air Temp Water Temp Dewpoint Dewpoint Depression Visibility Wind Speed Wind Dir Waves Ship Positions

Gulf Bridge

Last reported at 2014-Sep-29 00:14 UTC. Time now 2014-Sep-30 17:59 UTC.
Position S 34°10' E 151°46'.

Length 213 m; beam 32.2 m; draft 11.5 m.

Type: Cargo ship. MMSI: 636091115.

Date/timePositionNaut miles runAvg speedWind from/ knotsBaromVisibWave heightAir tempDewpointWater temp
2014-Sep-29 00:14S 34°10' E 151°46'913.1
2014-Sep-28 23:33S 34°14' E 151°56'1313.1
2014-Sep-28 22:33S 34°18' E 152°11'1313.0
2014-Sep-28 21:33S 34°22' E 152°26'1313.1
2014-Sep-28 20:33S 34°26' E 152°41'1313.0
2014-Sep-28 19:33S 34°31' E 152°55'  
2014-Sep-20 11:26S 36°32' E 175°53'1814.5
2014-Sep-20 10:14S 36°27' E 175°32'1014.6
2014-Sep-20 09:33S 36°24' E 175°21'1212.1
2014-Sep-20 08:33S 36°31' E 175°08'1211.7
2014-Sep-20 07:33S 36°38' E 174°57'1111.4
2014-Sep-20 06:33S 36°47' E 174°48'4 3.3
2014-Sep-20 05:28S 36°51' E 174°47'0 0.0
2014-Sep-20 04:29S 36°51' E 174°47'0 0.0
2014-Sep-20 03:22S 36°51' E 174°47'0 0.0
2014-Sep-20 02:23S 36°51' E 174°47'0 0.0
2014-Sep-20 01:28S 36°51' E 174°47'0 0.0
2014-Sep-20 00:29S 36°51' E 174°47'0 0.0
2014-Sep-19 23:29S 36°51' E 174°47'0 0.0
2014-Sep-19 22:28S 36°51' E 174°47'0 0.0
2014-Sep-19 21:32S 36°51' E 174°47'0 0.0
2014-Sep-19 20:32S 36°51' E 174°47'0 0.0
2014-Sep-19 19:29S 36°51' E 174°47'0 0.0
2014-Sep-19 18:28S 36°51' E 174°47'0 0.0
2014-Sep-19 17:23S 36°51' E 174°47'0 0.0
2014-Sep-19 16:32S 36°51' E 174°47'0 0.0
2014-Sep-19 15:32S 36°51' E 174°47'0 0.0
2014-Sep-19 14:32S 36°51' E 174°47'1 0.5
2014-Sep-19 13:33S 36°50' E 174°48'6 6.3
2014-Sep-19 12:33S 36°44' E 174°50'10 9.6
2014-Sep-19 11:33S 36°37' E 174°58'8 7.7
2014-Sep-19 10:33S 36°31' E 175°04'1 0.9
2014-Sep-19 09:33S 36°31' E 175°03'1 0.9
2014-Sep-19 08:33S 36°31' E 175°02'6 5.8
2014-Sep-19 07:33S 36°25' E 175°01'1010.1
2014-Sep-19 06:33S 36°15' E 174°59'  
Track history (hours):
 
Tides and Currents Weather Stations Pressure Air Temp Water Temp Dewpoint Dewpoint Depression Visibility Wind Speed Wind Dir Waves Ship Positions

Gulf Bridge

Last reported at 2014-Sep-29 00:14 UTC. Time now 2014-Sep-30 17:59 UTC.
Position S 34°10' E 151°46'.

Length 213 m; beam 32.2 m; draft 11.5 m.

Type: Cargo ship. MMSI: 636091115.

Date/timePositionNaut miles runAvg speedWind from/ knotsBaromVisibWave heightAir tempDewpointWater temp
2014-Sep-29 00:14S 34°10' E 151°46'913.1
2014-Sep-28 23:33S 34°14' E 151°56'1313.1
2014-Sep-28 22:33S 34°18' E 152°11'1313.0
2014-Sep-28 21:33S 34°22' E 152°26'1313.1
2014-Sep-28 20:33S 34°26' E 152°41'1313.0
2014-Sep-28 19:33S 34°31' E 152°55'  
2014-Sep-20 11:26S 36°32' E 175°53'1814.5
2014-Sep-20 10:14S 36°27' E 175°32'1014.6
2014-Sep-20 09:33S 36°24' E 175°21'1212.1
2014-Sep-20 08:33S 36°31' E 175°08'1211.7
2014-Sep-20 07:33S 36°38' E 174°57'1111.4
2014-Sep-20 06:33S 36°47' E 174°48'4 3.3
2014-Sep-20 05:28S 36°51' E 174°47'0 0.0
2014-Sep-20 04:29S 36°51' E 174°47'0 0.0
2014-Sep-20 03:22S 36°51' E 174°47'0 0.0
2014-Sep-20 02:23S 36°51' E 174°47'0 0.0
2014-Sep-20 01:28S 36°51' E 174°47'0 0.0
2014-Sep-20 00:29S 36°51' E 174°47'0 0.0
2014-Sep-19 23:29S 36°51' E 174°47'0 0.0
2014-Sep-19 22:28S 36°51' E 174°47'0 0.0
2014-Sep-19 21:32S 36°51' E 174°47'0 0.0
2014-Sep-19 20:32S 36°51' E 174°47'0 0.0
2014-Sep-19 19:29S 36°51' E 174°47'0 0.0
2014-Sep-19 18:28S 36°51' E 174°47'0 0.0
2014-Sep-19 17:23S 36°51' E 174°47'0 0.0
2014-Sep-19 16:32S 36°51' E 174°47'0 0.0
2014-Sep-19 15:32S 36°51' E 174°47'0 0.0
2014-Sep-19 14:32S 36°51' E 174°47'1 0.5
2014-Sep-19 13:33S 36°50' E 174°48'6 6.3
2014-Sep-19 12:33S 36°44' E 174°50'10 9.6
2014-Sep-19 11:33S 36°37' E 174°58'8 7.7
2014-Sep-19 10:33S 36°31' E 175°04'1 0.9
2014-Sep-19 09:33S 36°31' E 175°03'1 0.9
2014-Sep-19 08:33S 36°31' E 175°02'6 5.8
2014-Sep-19 07:33S 36°25' E 175°01'1010.1
2014-Sep-19 06:33S 36°15' E 174°59'  

Dump ship's entire track history